sensor_id;sensor_type;location;lat;lon;timestamp;P1;durP1;ratioP1;P2;durP2;ratioP2
2023;SDS011;1016;48.770;9.154;2022-09-12T00:01:02;21.38;;;7.68;;
2023;SDS011;1016;48.770;9.154;2022-09-12T00:03:38;20.70;;;8.00;;
2023;SDS011;1016;48.770;9.154;2022-09-12T00:06:08;20.60;;;7.90;;
2023;SDS011;1016;48.770;9.154;2022-09-12T00:08:35;19.95;;;7.65;;
2023;SDS011;1016;48.770;9.154;2022-09-12T00:11:03;20.38;;;7.47;;
2023;SDS011;1016;48.770;9.154;2022-09-12T00:13:30;20.90;;;8.23;;
2023;SDS011;1016;48.770;9.154;2022-09-12T00:15:55;20.20;;;7.72;;
2023;SDS011;1016;48.770;9.154;2022-09-12T00:18:21;20.50;;;7.50;;
2023;SDS011;1016;48.770;9.154;2022-09-12T00:20:46;23.40;;;8.40;;
2023;SDS011;1016;48.770;9.154;2022-09-12T00:23:12;21.10;;;8.50;;
2023;SDS011;1016;48.770;9.154;2022-09-12T00:25:45;21.52;;;8.55;;
2023;SDS011;1016;48.770;9.154;2022-09-12T00:28:12;21.00;;;8.13;;
2023;SDS011;1016;48.770;9.154;2022-09-12T00:30:41;20.67;;;8.32;;
2023;SDS011;1016;48.770;9.154;2022-09-12T00:33:08;21.52;;;8.25;;
2023;SDS011;1016;48.770;9.154;2022-09-12T00:35:39;21.40;;;8.98;;
2023;SDS011;1016;48.770;9.154;2022-09-12T00:38:06;21.42;;;9.18;;
2023;SDS011;1016;48.770;9.154;2022-09-12T00:40:31;21.30;;;8.80;;
2023;SDS011;1016;48.770;9.154;2022-09-12T00:42:57;21.00;;;8.90;;
2023;SDS011;1016;48.770;9.154;2022-09-12T00:45:23;21.50;;;9.23;;
2023;SDS011;1016;48.770;9.154;2022-09-12T00:47:52;20.92;;;9.00;;
2023;SDS011;1016;48.770;9.154;2022-09-12T00:50:19;21.67;;;9.70;;
2023;SDS011;1016;48.770;9.154;2022-09-12T00:52:51;21.87;;;8.50;;
2023;SDS011;1016;48.770;9.154;2022-09-12T00:55:24;21.83;;;8.97;;
2023;SDS011;1016;48.770;9.154;2022-09-12T01:00:22;21.83;;;8.43;;
2023;SDS011;1016;48.770;9.154;2022-09-12T01:02:50;23.03;;;9.10;;
2023;SDS011;1016;48.770;9.154;2022-09-12T01:05:18;21.93;;;9.20;;
2023;SDS011;1016;48.770;9.154;2022-09-12T01:07:46;21.80;;;8.77;;
2023;SDS011;1016;48.770;9.154;2022-09-12T01:10:15;22.20;;;9.40;;
2023;SDS011;1016;48.770;9.154;2022-09-12T01:12:41;23.63;;;9.27;;
2023;SDS011;1016;48.770;9.154;2022-09-12T01:15:08;22.40;;;9.23;;
2023;SDS011;1016;48.770;9.154;2022-09-12T01:31:24;22.77;;;9.27;;
2023;SDS011;1016;48.770;9.154;2022-09-12T01:33:59;23.20;;;9.30;;
2023;SDS011;1016;48.770;9.154;2022-09-12T01:39:37;23.60;;;9.60;;
2023;SDS011;1016;48.770;9.154;2022-09-12T01:42:22;22.47;;;9.33;;
2023;SDS011;1016;48.770;9.154;2022-09-12T01:48:01;23.23;;;9.13;;
2023;SDS011;1016;48.770;9.154;2022-09-12T01:50:36;21.70;;;9.33;;
2023;SDS011;1016;48.770;9.154;2022-09-12T01:53:22;22.87;;;8.63;;
2023;SDS011;1016;48.770;9.154;2022-09-12T01:55:57;22.90;;;10.17;;
2023;SDS011;1016;48.770;9.154;2022-09-12T01:58:28;27.03;;;10.00;;
2023;SDS011;1016;48.770;9.154;2022-09-12T02:03:36;23.67;;;10.03;;
2023;SDS011;1016;48.770;9.154;2022-09-12T02:06:07;22.77;;;10.03;;
2023;SDS011;1016;48.770;9.154;2022-09-12T02:08:46;22.20;;;9.27;;
2023;SDS011;1016;48.770;9.154;2022-09-12T02:11:15;23.03;;;10.00;;
2023;SDS011;1016;48.770;9.154;2022-09-12T02:14:02;23.20;;;10.43;;
2023;SDS011;1016;48.770;9.154;2022-09-12T02:16:51;23.60;;;9.60;;
2023;SDS011;1016;48.770;9.154;2022-09-12T02:19:23;21.67;;;9.10;;
2023;SDS011;1016;48.770;9.154;2022-09-12T02:21:53;24.77;;;10.00;;
2023;SDS011;1016;48.770;9.154;2022-09-12T02:24:23;24.03;;;9.93;;
2023;SDS011;1016;48.770;9.154;2022-09-12T02:26:57;23.27;;;9.97;;
2023;SDS011;1016;48.770;9.154;2022-09-12T02:29:27;23.37;;;9.57;;
2023;SDS011;1016;48.770;9.154;2022-09-12T02:31:57;23.80;;;8.53;;
2023;SDS011;1016;48.770;9.154;2022-09-12T02:34:32;22.10;;;8.67;;
2023;SDS011;1016;48.770;9.154;2022-09-12T02:37:17;22.70;;;8.83;;
2023;SDS011;1016;48.770;9.154;2022-09-12T02:39:49;21.90;;;8.90;;
2023;SDS011;1016;48.770;9.154;2022-09-12T02:42:21;23.83;;;10.47;;
2023;SDS011;1016;48.770;9.154;2022-09-12T02:44:48;22.30;;;9.33;;
2023;SDS011;1016;48.770;9.154;2022-09-12T02:47:26;26.70;;;10.90;;
2023;SDS011;1016;48.770;9.154;2022-09-12T02:49:56;23.20;;;10.20;;
2023;SDS011;1016;48.770;9.154;2022-09-12T02:52:24;24.43;;;10.20;;
2023;SDS011;1016;48.770;9.154;2022-09-12T02:54:51;23.93;;;9.47;;
2023;SDS011;1016;48.770;9.154;2022-09-12T02:57:17;23.13;;;9.07;;
2023;SDS011;1016;48.770;9.154;2022-09-12T02:59:44;22.27;;;9.20;;
2023;SDS011;1016;48.770;9.154;2022-09-12T03:02:14;23.83;;;10.97;;
2023;SDS011;1016;48.770;9.154;2022-09-12T03:05:02;23.37;;;10.70;;
2023;SDS011;1016;48.770;9.154;2022-09-12T03:21:48;26.50;;;11.40;;
2023;SDS011;1016;48.770;9.154;2022-09-12T03:24:28;22.83;;;9.90;;
2023;SDS011;1016;48.770;9.154;2022-09-12T03:27:13;25.27;;;10.00;;
2023;SDS011;1016;48.770;9.154;2022-09-12T03:29:42;24.77;;;10.43;;
2023;SDS011;1016;48.770;9.154;2022-09-12T03:32:11;24.50;;;11.63;;
2023;SDS011;1016;48.770;9.154;2022-09-12T03:34:37;25.00;;;11.03;;
2023;SDS011;1016;48.770;9.154;2022-09-12T03:37:03;23.50;;;11.07;;
2023;SDS011;1016;48.770;9.154;2022-09-12T03:39:29;24.87;;;11.37;;
2023;SDS011;1016;48.770;9.154;2022-09-12T03:41:55;24.20;;;11.97;;
2023;SDS011;1016;48.770;9.154;2022-09-12T03:44:21;27.37;;;11.60;;
2023;SDS011;1016;48.770;9.154;2022-09-12T03:46:47;23.43;;;10.20;;
2023;SDS011;1016;48.770;9.154;2022-09-12T03:49:12;25.07;;;11.30;;
2023;SDS011;1016;48.770;9.154;2022-09-12T03:51:38;24.10;;;10.83;;
2023;SDS011;1016;48.770;9.154;2022-09-12T03:54:05;24.97;;;11.83;;
2023;SDS011;1016;48.770;9.154;2022-09-12T03:56:30;25.63;;;12.30;;
2023;SDS011;1016;48.770;9.154;2022-09-12T03:58:56;23.90;;;11.63;;
2023;SDS011;1016;48.770;9.154;2022-09-12T04:01:22;24.57;;;11.07;;
2023;SDS011;1016;48.770;9.154;2022-09-12T04:03:49;24.53;;;10.80;;
2023;SDS011;1016;48.770;9.154;2022-09-12T04:06:17;26.90;;;11.63;;
2023;SDS011;1016;48.770;9.154;2022-09-12T04:08:46;24.63;;;10.93;;
2023;SDS011;1016;48.770;9.154;2022-09-12T04:11:17;25.03;;;12.20;;
2023;SDS011;1016;48.770;9.154;2022-09-12T04:13:44;26.00;;;11.60;;
2023;SDS011;1016;48.770;9.154;2022-09-12T04:16:11;24.70;;;11.87;;
2023;SDS011;1016;48.770;9.154;2022-09-12T04:18:37;26.00;;;12.33;;
2023;SDS011;1016;48.770;9.154;2022-09-12T04:21:04;26.13;;;11.13;;
2023;SDS011;1016;48.770;9.154;2022-09-12T04:23:31;23.70;;;11.30;;
2023;SDS011;1016;48.770;9.154;2022-09-12T04:25:58;26.83;;;11.47;;
2023;SDS011;1016;48.770;9.154;2022-09-12T04:28:25;27.60;;;11.70;;
2023;SDS011;1016;48.770;9.154;2022-09-12T04:30:50;24.80;;;11.00;;
2023;SDS011;1016;48.770;9.154;2022-09-12T04:33:16;26.07;;;11.53;;
2023;SDS011;1016;48.770;9.154;2022-09-12T04:35:42;25.17;;;11.43;;
2023;SDS011;1016;48.770;9.154;2022-09-12T04:38:09;24.80;;;11.80;;
2023;SDS011;1016;48.770;9.154;2022-09-12T04:40:35;26.03;;;12.27;;
2023;SDS011;1016;48.770;9.154;2022-09-12T04:43:01;24.80;;;11.20;;
2023;SDS011;1016;48.770;9.154;2022-09-12T04:45:27;25.43;;;12.23;;
2023;SDS011;1016;48.770;9.154;2022-09-12T04:47:52;23.93;;;11.40;;
2023;SDS011;1016;48.770;9.154;2022-09-12T04:50:18;24.90;;;11.03;;
2023;SDS011;1016;48.770;9.154;2022-09-12T04:52:48;25.23;;;11.20;;
2023;SDS011;1016;48.770;9.154;2022-09-12T04:55:17;28.20;;;12.40;;
2023;SDS011;1016;48.770;9.154;2022-09-12T04:57:43;25.07;;;11.00;;
2023;SDS011;1016;48.770;9.154;2022-09-12T05:00:09;25.90;;;11.50;;
2023;SDS011;1016;48.770;9.154;2022-09-12T05:02:39;24.13;;;11.20;;
2023;SDS011;1016;48.770;9.154;2022-09-12T05:05:05;25.63;;;10.97;;
2023;SDS011;1016;48.770;9.154;2022-09-12T05:07:31;23.80;;;10.87;;
2023;SDS011;1016;48.770;9.154;2022-09-12T05:09:57;22.77;;;10.03;;
2023;SDS011;1016;48.770;9.154;2022-09-12T05:12:23;22.23;;;9.17;;
2023;SDS011;1016;48.770;9.154;2022-09-12T05:14:49;23.20;;;10.17;;
2023;SDS011;1016;48.770;9.154;2022-09-12T05:17:14;24.47;;;9.93;;
2023;SDS011;1016;48.770;9.154;2022-09-12T05:19:40;23.30;;;9.40;;
2023;SDS011;1016;48.770;9.154;2022-09-12T05:22:06;25.00;;;9.90;;
2023;SDS011;1016;48.770;9.154;2022-09-12T05:24:31;23.30;;;9.87;;
2023;SDS011;1016;48.770;9.154;2022-09-12T05:26:57;25.70;;;9.87;;
2023;SDS011;1016;48.770;9.154;2022-09-12T05:29:23;23.27;;;9.80;;
2023;SDS011;1016;48.770;9.154;2022-09-12T05:31:49;24.03;;;10.37;;
2023;SDS011;1016;48.770;9.154;2022-09-12T05:34:16;22.03;;;9.17;;
2023;SDS011;1016;48.770;9.154;2022-09-12T05:36:42;23.90;;;10.40;;
2023;SDS011;1016;48.770;9.154;2022-09-12T05:39:07;24.13;;;10.33;;
2023;SDS011;1016;48.770;9.154;2022-09-12T05:41:33;24.40;;;11.27;;
2023;SDS011;1016;48.770;9.154;2022-09-12T05:44:01;24.73;;;11.17;;
2023;SDS011;1016;48.770;9.154;2022-09-12T05:46:29;24.30;;;11.03;;
2023;SDS011;1016;48.770;9.154;2022-09-12T05:48:56;23.90;;;11.13;;
2023;SDS011;1016;48.770;9.154;2022-09-12T05:51:27;22.20;;;9.60;;
2023;SDS011;1016;48.770;9.154;2022-09-12T05:53:56;24.00;;;9.60;;
2023;SDS011;1016;48.770;9.154;2022-09-12T05:56:24;22.20;;;9.13;;
2023;SDS011;1016;48.770;9.154;2022-09-12T05:58:52;23.10;;;9.10;;
2023;SDS011;1016;48.770;9.154;2022-09-12T06:01:20;23.80;;;9.20;;
2023;SDS011;1016;48.770;9.154;2022-09-12T06:03:46;24.37;;;9.43;;
2023;SDS011;1016;48.770;9.154;2022-09-12T06:06:14;22.83;;;8.73;;
2023;SDS011;1016;48.770;9.154;2022-09-12T06:08:44;24.10;;;9.93;;
2023;SDS011;1016;48.770;9.154;2022-09-12T06:11:12;25.33;;;10.37;;
2023;SDS011;1016;48.770;9.154;2022-09-12T06:13:40;27.80;;;9.53;;
2023;SDS011;1016;48.770;9.154;2022-09-12T06:16:07;24.50;;;9.60;;
2023;SDS011;1016;48.770;9.154;2022-09-12T06:18:35;27.00;;;10.23;;
2023;SDS011;1016;48.770;9.154;2022-09-12T06:21:05;25.20;;;9.43;;
2023;SDS011;1016;48.770;9.154;2022-09-12T06:23:35;25.63;;;10.10;;
2023;SDS011;1016;48.770;9.154;2022-09-12T06:26:01;23.30;;;9.93;;
2023;SDS011;1016;48.770;9.154;2022-09-12T06:28:28;23.60;;;9.63;;
2023;SDS011;1016;48.770;9.154;2022-09-12T06:30:59;25.60;;;9.87;;
2023;SDS011;1016;48.770;9.154;2022-09-12T06:33:30;23.70;;;10.00;;
2023;SDS011;1016;48.770;9.154;2022-09-12T06:36:03;23.50;;;9.70;;
2023;SDS011;1016;48.770;9.154;2022-09-12T06:38:42;22.13;;;9.40;;
2023;SDS011;1016;48.770;9.154;2022-09-12T06:41:10;23.80;;;10.83;;
2023;SDS011;1016;48.770;9.154;2022-09-12T06:43:37;24.67;;;10.50;;
2023;SDS011;1016;48.770;9.154;2022-09-12T06:46:04;24.30;;;11.00;;
2023;SDS011;1016;48.770;9.154;2022-09-12T06:48:30;24.30;;;10.83;;
2023;SDS011;1016;48.770;9.154;2022-09-12T06:53:26;24.27;;;10.57;;
2023;SDS011;1016;48.770;9.154;2022-09-12T06:56:05;22.83;;;9.33;;
2023;SDS011;1016;48.770;9.154;2022-09-12T06:58:43;23.90;;;9.60;;
2023;SDS011;1016;48.770;9.154;2022-09-12T07:01:10;23.00;;;9.33;;
2023;SDS011;1016;48.770;9.154;2022-09-12T07:03:36;25.10;;;9.17;;
2023;SDS011;1016;48.770;9.154;2022-09-12T07:06:03;32.47;;;9.93;;
2023;SDS011;1016;48.770;9.154;2022-09-12T07:08:31;26.03;;;10.20;;
2023;SDS011;1016;48.770;9.154;2022-09-12T07:10:58;23.70;;;10.03;;
2023;SDS011;1016;48.770;9.154;2022-09-12T07:13:25;22.70;;;9.27;;
2023;SDS011;1016;48.770;9.154;2022-09-12T07:15:50;23.30;;;9.47;;
2023;SDS011;1016;48.770;9.154;2022-09-12T07:18:16;22.73;;;9.00;;
2023;SDS011;1016;48.770;9.154;2022-09-12T07:20:42;23.83;;;9.40;;
2023;SDS011;1016;48.770;9.154;2022-09-12T07:23:07;24.40;;;9.17;;
2023;SDS011;1016;48.770;9.154;2022-09-12T07:25:33;23.40;;;9.30;;
2023;SDS011;1016;48.770;9.154;2022-09-12T07:27:59;23.53;;;10.13;;
2023;SDS011;1016;48.770;9.154;2022-09-12T07:30:24;21.50;;;8.10;;
2023;SDS011;1016;48.770;9.154;2022-09-12T07:32:53;24.10;;;8.57;;
2023;SDS011;1016;48.770;9.154;2022-09-12T07:35:19;23.70;;;9.20;;
2023;SDS011;1016;48.770;9.154;2022-09-12T07:37:45;22.40;;;10.10;;
2023;SDS011;1016;48.770;9.154;2022-09-12T07:40:11;24.03;;;9.63;;
2023;SDS011;1016;48.770;9.154;2022-09-12T07:42:37;21.90;;;8.40;;
2023;SDS011;1016;48.770;9.154;2022-09-12T07:45:02;24.07;;;8.70;;
2023;SDS011;1016;48.770;9.154;2022-09-12T07:47:28;22.77;;;8.80;;
2023;SDS011;1016;48.770;9.154;2022-09-12T07:49:53;27.23;;;8.47;;
2023;SDS011;1016;48.770;9.154;2022-09-12T07:52:19;23.80;;;7.83;;
2023;SDS011;1016;48.770;9.154;2022-09-12T07:54:44;24.10;;;8.10;;
2023;SDS011;1016;48.770;9.154;2022-09-12T07:57:10;23.90;;;7.40;;
2023;SDS011;1016;48.770;9.154;2022-09-12T07:59:35;23.13;;;8.10;;
2023;SDS011;1016;48.770;9.154;2022-09-12T08:02:08;23.83;;;7.57;;
2023;SDS011;1016;48.770;9.154;2022-09-12T08:04:37;25.70;;;8.33;;
2023;SDS011;1016;48.770;9.154;2022-09-12T08:07:03;21.27;;;7.40;;
2023;SDS011;1016;48.770;9.154;2022-09-12T08:09:30;20.60;;;6.33;;
2023;SDS011;1016;48.770;9.154;2022-09-12T08:11:56;23.43;;;6.40;;
2023;SDS011;1016;48.770;9.154;2022-09-12T08:14:21;20.20;;;5.90;;
2023;SDS011;1016;48.770;9.154;2022-09-12T08:16:47;19.67;;;6.30;;
2023;SDS011;1016;48.770;9.154;2022-09-12T08:19:12;21.97;;;6.20;;
2023;SDS011;1016;48.770;9.154;2022-09-12T08:21:38;21.97;;;6.57;;
2023;SDS011;1016;48.770;9.154;2022-09-12T08:24:04;21.60;;;7.10;;
2023;SDS011;1016;48.770;9.154;2022-09-12T08:26:30;22.60;;;8.53;;
2023;SDS011;1016;48.770;9.154;2022-09-12T08:28:56;22.90;;;8.30;;
2023;SDS011;1016;48.770;9.154;2022-09-12T08:31:23;25.03;;;8.60;;
2023;SDS011;1016;48.770;9.154;2022-09-12T08:33:51;23.07;;;8.97;;
2023;SDS011;1016;48.770;9.154;2022-09-12T08:36:20;22.50;;;7.87;;
2023;SDS011;1016;48.770;9.154;2022-09-12T08:38:48;25.10;;;8.10;;
2023;SDS011;1016;48.770;9.154;2022-09-12T08:41:24;24.03;;;7.50;;
2023;SDS011;1016;48.770;9.154;2022-09-12T08:44:09;22.40;;;7.60;;
2023;SDS011;1016;48.770;9.154;2022-09-12T08:49:11;20.10;;;6.43;;
2023;SDS011;1016;48.770;9.154;2022-09-12T08:51:39;21.90;;;7.10;;
2023;SDS011;1016;48.770;9.154;2022-09-12T08:54:09;22.17;;;6.70;;
2023;SDS011;1016;48.770;9.154;2022-09-12T08:56:56;23.43;;;6.57;;
2023;SDS011;1016;48.770;9.154;2022-09-12T08:59:26;21.50;;;6.87;;
2023;SDS011;1016;48.770;9.154;2022-09-12T09:01:59;20.40;;;5.60;;
2023;SDS011;1016;48.770;9.154;2022-09-12T09:13:04;21.70;;;5.70;;
2023;SDS011;1016;48.770;9.154;2022-09-12T09:16:30;21.10;;;5.87;;
2023;SDS011;1016;48.770;9.154;2022-09-12T09:19:00;24.23;;;5.60;;
2023;SDS011;1016;48.770;9.154;2022-09-12T09:21:43;20.87;;;5.50;;
2023;SDS011;1016;48.770;9.154;2022-09-12T09:24:18;23.10;;;5.77;;
2023;SDS011;1016;48.770;9.154;2022-09-12T09:26:52;23.07;;;5.20;;
2023;SDS011;1016;48.770;9.154;2022-09-12T09:29:27;21.53;;;5.60;;
2023;SDS011;1016;48.770;9.154;2022-09-12T09:31:59;21.27;;;5.67;;
2023;SDS011;1016;48.770;9.154;2022-09-12T09:34:29;20.67;;;4.90;;
2023;SDS011;1016;48.770;9.154;2022-09-12T09:42:21;19.83;;;3.80;;
2023;SDS011;1016;48.770;9.154;2022-09-12T09:45:10;17.63;;;3.50;;
2023;SDS011;1016;48.770;9.154;2022-09-12T09:47:40;17.63;;;3.40;;
2023;SDS011;1016;48.770;9.154;2022-09-12T09:50:10;17.20;;;2.73;;
2023;SDS011;1016;48.770;9.154;2022-09-12T09:52:40;17.50;;;3.17;;
2023;SDS011;1016;48.770;9.154;2022-09-12T09:55:09;18.37;;;2.83;;
2023;SDS011;1016;48.770;9.154;2022-09-12T09:57:42;20.00;;;3.60;;
2023;SDS011;1016;48.770;9.154;2022-09-12T10:00:27;17.93;;;3.47;;
2023;SDS011;1016;48.770;9.154;2022-09-12T10:05:44;17.30;;;2.93;;
2023;SDS011;1016;48.770;9.154;2022-09-12T10:08:22;17.10;;;2.90;;
2023;SDS011;1016;48.770;9.154;2022-09-12T10:10:58;17.33;;;2.60;;
2023;SDS011;1016;48.770;9.154;2022-09-12T10:14:22;18.77;;;3.13;;
2023;SDS011;1016;48.770;9.154;2022-09-12T10:16:27;18.27;;;2.83;;
2023;SDS011;1016;48.770;9.154;2022-09-12T10:19:18;17.20;;;2.97;;
2023;SDS011;1016;48.770;9.154;2022-09-12T10:21:51;17.03;;;2.53;;
2023;SDS011;1016;48.770;9.154;2022-09-12T10:24:27;17.33;;;2.90;;
2023;SDS011;1016;48.770;9.154;2022-09-12T10:29:46;17.33;;;2.80;;
2023;SDS011;1016;48.770;9.154;2022-09-12T10:32:28;17.70;;;2.50;;
2023;SDS011;1016;48.770;9.154;2022-09-12T10:35:17;17.80;;;2.73;;
2023;SDS011;1016;48.770;9.154;2022-09-12T10:37:57;17.60;;;2.93;;
2023;SDS011;1016;48.770;9.154;2022-09-12T10:40:27;17.70;;;2.60;;
2023;SDS011;1016;48.770;9.154;2022-09-12T10:42:59;17.30;;;2.77;;
2023;SDS011;1016;48.770;9.154;2022-09-12T10:48:03;17.50;;;3.23;;
2023;SDS011;1016;48.770;9.154;2022-09-12T10:50:54;20.93;;;2.43;;
2023;SDS011;1016;48.770;9.154;2022-09-12T10:53:27;18.30;;;2.40;;
2023;SDS011;1016;48.770;9.154;2022-09-12T10:58:43;16.47;;;2.03;;
2023;SDS011;1016;48.770;9.154;2022-09-12T11:01:27;17.30;;;2.50;;
2023;SDS011;1016;48.770;9.154;2022-09-12T11:10:23;16.47;;;2.10;;
2023;SDS011;1016;48.770;9.154;2022-09-12T11:13:17;16.37;;;2.07;;
2023;SDS011;1016;48.770;9.154;2022-09-12T11:21:51;18.87;;;2.60;;
2023;SDS011;1016;48.770;9.154;2022-09-12T11:27:42;16.77;;;1.97;;
2023;SDS011;1016;48.770;9.154;2022-09-12T11:30:21;16.23;;;1.60;;
2023;SDS011;1016;48.770;9.154;2022-09-12T11:33:02;20.93;;;2.07;;
2023;SDS011;1016;48.770;9.154;2022-09-12T11:35:51;16.97;;;1.80;;
2023;SDS011;1016;48.770;9.154;2022-09-12T11:41:25;17.13;;;2.10;;
2023;SDS011;1016;48.770;9.154;2022-09-12T11:44:01;16.23;;;1.80;;
2023;SDS011;1016;48.770;9.154;2022-09-12T11:46:43;16.50;;;1.93;;
2023;SDS011;1016;48.770;9.154;2022-09-12T11:51:47;16.60;;;1.83;;
2023;SDS011;1016;48.770;9.154;2022-09-12T11:54:19;17.73;;;2.10;;
2023;SDS011;1016;48.770;9.154;2022-09-12T11:56:57;16.37;;;1.63;;
2023;SDS011;1016;48.770;9.154;2022-09-12T11:59:47;16.70;;;1.87;;
2023;SDS011;1016;48.770;9.154;2022-09-12T12:02:30;16.03;;;1.80;;
2023;SDS011;1016;48.770;9.154;2022-09-12T12:07:40;17.13;;;1.60;;
2023;SDS011;1016;48.770;9.154;2022-09-12T12:12:59;18.60;;;1.57;;
2023;SDS011;1016;48.770;9.154;2022-09-12T12:15:29;17.33;;;2.67;;
2023;SDS011;1016;48.770;9.154;2022-09-12T12:17:59;17.10;;;1.80;;
2023;SDS011;1016;48.770;9.154;2022-09-12T12:20:31;16.30;;;1.93;;
2023;SDS011;1016;48.770;9.154;2022-09-12T12:22:56;17.20;;;2.13;;
2023;SDS011;1016;48.770;9.154;2022-09-12T12:25:23;16.83;;;1.70;;
2023;SDS011;1016;48.770;9.154;2022-09-12T12:28:01;16.60;;;2.00;;
2023;SDS011;1016;48.770;9.154;2022-09-12T12:32:58;16.37;;;1.70;;
2023;SDS011;1016;48.770;9.154;2022-09-12T12:35:43;16.17;;;1.60;;
2023;SDS011;1016;48.770;9.154;2022-09-12T12:43:43;17.40;;;2.10;;
2023;SDS011;1016;48.770;9.154;2022-09-12T12:46:16;16.67;;;2.30;;
2023;SDS011;1016;48.770;9.154;2022-09-12T12:53:47;16.30;;;2.07;;
2023;SDS011;1016;48.770;9.154;2022-09-12T12:56:34;17.30;;;2.17;;
2023;SDS011;1016;48.770;9.154;2022-09-12T12:59:19;16.20;;;1.97;;
2023;SDS011;1016;48.770;9.154;2022-09-12T13:01:48;17.83;;;2.20;;
2023;SDS011;1016;48.770;9.154;2022-09-12T13:04:17;16.70;;;1.80;;
2023;SDS011;1016;48.770;9.154;2022-09-12T13:06:46;16.03;;;1.70;;
2023;SDS011;1016;48.770;9.154;2022-09-12T13:09:32;17.13;;;1.70;;
2023;SDS011;1016;48.770;9.154;2022-09-12T13:12:04;16.30;;;2.27;;
2023;SDS011;1016;48.770;9.154;2022-09-12T13:14:45;16.30;;;1.70;;
2023;SDS011;1016;48.770;9.154;2022-09-12T13:17:26;15.87;;;1.70;;
2023;SDS011;1016;48.770;9.154;2022-09-12T13:20:18;16.90;;;1.70;;
2023;SDS011;1016;48.770;9.154;2022-09-12T13:22:46;16.50;;;2.17;;
2023;SDS011;1016;48.770;9.154;2022-09-12T13:30:35;15.83;;;1.73;;
2023;SDS011;1016;48.770;9.154;2022-09-12T13:33:24;15.77;;;1.50;;
2023;SDS011;1016;48.770;9.154;2022-09-12T13:36:16;15.87;;;1.47;;
2023;SDS011;1016;48.770;9.154;2022-09-12T13:44:22;16.80;;;1.50;;
2023;SDS011;1016;48.770;9.154;2022-09-12T13:46:50;20.70;;;2.30;;
2023;SDS011;1016;48.770;9.154;2022-09-12T13:52:06;18.87;;;4.40;;
2023;SDS011;1016;48.770;9.154;2022-09-12T13:54:38;17.83;;;1.40;;
2023;SDS011;1016;48.770;9.154;2022-09-12T13:57:04;16.53;;;1.50;;
2023;SDS011;1016;48.770;9.154;2022-09-12T13:59:39;17.80;;;1.67;;
2023;SDS011;1016;48.770;9.154;2022-09-12T14:02:19;18.80;;;1.80;;
2023;SDS011;1016;48.770;9.154;2022-09-12T14:04:46;15.63;;;1.40;;
2023;SDS011;1016;48.770;9.154;2022-09-12T14:07:33;15.80;;;1.50;;
2023;SDS011;1016;48.770;9.154;2022-09-12T14:10:04;15.87;;;1.30;;
2023;SDS011;1016;48.770;9.154;2022-09-12T14:12:37;15.83;;;1.50;;
2023;SDS011;1016;48.770;9.154;2022-09-12T14:15:14;16.00;;;1.60;;
2023;SDS011;1016;48.770;9.154;2022-09-12T14:20:11;16.07;;;1.50;;
2023;SDS011;1016;48.770;9.154;2022-09-12T14:22:40;17.60;;;1.50;;
2023;SDS011;1016;48.770;9.154;2022-09-12T15:03:25;17.20;;;1.58;;
2023;SDS011;1016;48.770;9.154;2022-09-12T15:05:51;15.03;;;1.40;;
2023;SDS011;1016;48.770;9.154;2022-09-12T15:08:19;15.43;;;1.50;;
2023;SDS011;1016;48.770;9.154;2022-09-12T15:10:45;15.27;;;1.33;;
2023;SDS011;1016;48.770;9.154;2022-09-12T15:13:14;16.60;;;1.60;;
2023;SDS011;1016;48.770;9.154;2022-09-12T15:15:44;16.52;;;1.70;;
2023;SDS011;1016;48.770;9.154;2022-09-12T15:18:11;16.80;;;1.70;;
2023;SDS011;1016;48.770;9.154;2022-09-12T15:20:38;17.20;;;1.90;;
2023;SDS011;1016;48.770;9.154;2022-09-12T15:23:09;16.50;;;1.73;;
2023;SDS011;1016;48.770;9.154;2022-09-12T15:25:39;16.58;;;1.75;;
2023;SDS011;1016;48.770;9.154;2022-09-12T15:28:14;17.30;;;2.10;;
2023;SDS011;1016;48.770;9.154;2022-09-12T15:30:45;16.90;;;1.90;;
2023;SDS011;1016;48.770;9.154;2022-09-12T15:33:13;17.40;;;2.10;;
2023;SDS011;1016;48.770;9.154;2022-09-12T15:35:39;16.80;;;1.90;;
2023;SDS011;1016;48.770;9.154;2022-09-12T15:38:05;18.10;;;2.10;;
2023;SDS011;1016;48.770;9.154;2022-09-12T15:40:30;18.63;;;2.10;;
2023;SDS011;1016;48.770;9.154;2022-09-12T15:42:56;17.00;;;1.90;;
2023;SDS011;1016;48.770;9.154;2022-09-12T15:45:22;17.60;;;2.80;;
2023;SDS011;1016;48.770;9.154;2022-09-12T15:47:52;17.02;;;2.00;;
2023;SDS011;1016;48.770;9.154;2022-09-12T15:50:22;18.30;;;2.20;;
2023;SDS011;1016;48.770;9.154;2022-09-12T15:52:48;17.10;;;1.95;;
2023;SDS011;1016;48.770;9.154;2022-09-12T15:55:46;16.70;;;1.80;;
2023;SDS011;1016;48.770;9.154;2022-09-12T15:58:05;17.50;;;2.10;;
2023;SDS011;1016;48.770;9.154;2022-09-12T16:00:31;17.43;;;2.50;;
2023;SDS011;1016;48.770;9.154;2022-09-12T16:02:57;18.20;;;2.10;;
2023;SDS011;1016;48.770;9.154;2022-09-12T16:05:23;20.43;;;4.90;;
2023;SDS011;1016;48.770;9.154;2022-09-12T16:07:53;20.85;;;4.22;;
2023;SDS011;1016;48.770;9.154;2022-09-12T16:10:28;18.50;;;3.17;;
2023;SDS011;1016;48.770;9.154;2022-09-12T16:12:55;17.48;;;2.20;;
2023;SDS011;1016;48.770;9.154;2022-09-12T16:15:22;18.10;;;2.15;;
2023;SDS011;1016;48.770;9.154;2022-09-12T16:17:49;17.10;;;1.90;;
2023;SDS011;1016;48.770;9.154;2022-09-12T16:20:15;19.07;;;2.40;;
2023;SDS011;1016;48.770;9.154;2022-09-12T16:22:41;22.33;;;3.10;;
2023;SDS011;1016;48.770;9.154;2022-09-12T16:25:07;16.87;;;2.03;;
2023;SDS011;1016;48.770;9.154;2022-09-12T16:27:33;18.37;;;2.20;;
2023;SDS011;1016;48.770;9.154;2022-09-12T16:29:59;20.38;;;2.30;;
2023;SDS011;1016;48.770;9.154;2022-09-12T16:32:24;17.80;;;2.20;;
2023;SDS011;1016;48.770;9.154;2022-09-12T16:34:50;16.90;;;2.23;;
2023;SDS011;1016;48.770;9.154;2022-09-12T16:37:16;16.90;;;2.10;;
2023;SDS011;1016;48.770;9.154;2022-09-12T16:39:42;16.53;;;2.20;;
2023;SDS011;1016;48.770;9.154;2022-09-12T16:42:08;17.10;;;2.27;;
2023;SDS011;1016;48.770;9.154;2022-09-12T16:44:34;16.10;;;1.93;;
2023;SDS011;1016;48.770;9.154;2022-09-12T16:46:59;16.33;;;2.00;;
2023;SDS011;1016;48.770;9.154;2022-09-12T16:49:25;17.03;;;2.40;;
2023;SDS011;1016;48.770;9.154;2022-09-12T16:51:50;16.20;;;1.97;;
2023;SDS011;1016;48.770;9.154;2022-09-12T16:54:16;17.97;;;2.33;;
2023;SDS011;1016;48.770;9.154;2022-09-12T16:56:42;17.80;;;2.50;;
2023;SDS011;1016;48.770;9.154;2022-09-12T16:59:08;23.80;;;3.93;;
2023;SDS011;1016;48.770;9.154;2022-09-12T17:01:38;17.50;;;2.33;;
2023;SDS011;1016;48.770;9.154;2022-09-12T17:04:03;18.30;;;2.07;;
2023;SDS011;1016;48.770;9.154;2022-09-12T17:06:31;21.70;;;2.20;;
2023;SDS011;1016;48.770;9.154;2022-09-12T17:08:58;18.30;;;2.50;;
2023;SDS011;1016;48.770;9.154;2022-09-12T17:11:26;18.10;;;2.30;;
2023;SDS011;1016;48.770;9.154;2022-09-12T17:13:56;16.57;;;2.00;;
2023;SDS011;1016;48.770;9.154;2022-09-12T17:16:23;17.53;;;2.60;;
2023;SDS011;1016;48.770;9.154;2022-09-12T17:18:50;22.93;;;2.77;;
2023;SDS011;1016;48.770;9.154;2022-09-12T17:21:16;17.50;;;2.50;;
2023;SDS011;1016;48.770;9.154;2022-09-12T17:23:42;18.10;;;2.80;;
2023;SDS011;1016;48.770;9.154;2022-09-12T17:26:08;17.57;;;2.00;;
2023;SDS011;1016;48.770;9.154;2022-09-12T17:28:35;20.40;;;2.43;;
2023;SDS011;1016;48.770;9.154;2022-09-12T17:31:02;18.13;;;2.57;;
2023;SDS011;1016;48.770;9.154;2022-09-12T17:33:33;19.30;;;2.80;;
2023;SDS011;1016;48.770;9.154;2022-09-12T17:36:00;18.70;;;2.80;;
2023;SDS011;1016;48.770;9.154;2022-09-12T17:38:27;18.20;;;2.77;;
2023;SDS011;1016;48.770;9.154;2022-09-12T17:40:55;19.53;;;2.20;;
2023;SDS011;1016;48.770;9.154;2022-09-12T17:43:20;18.90;;;2.77;;
2023;SDS011;1016;48.770;9.154;2022-09-12T17:45:46;18.83;;;2.23;;
2023;SDS011;1016;48.770;9.154;2022-09-12T17:48:21;17.40;;;2.63;;
2023;SDS011;1016;48.770;9.154;2022-09-12T17:50:46;19.20;;;2.57;;
2023;SDS011;1016;48.770;9.154;2022-09-12T17:53:12;19.60;;;2.60;;
2023;SDS011;1016;48.770;9.154;2022-09-12T17:55:38;20.63;;;2.70;;
2023;SDS011;1016;48.770;9.154;2022-09-12T17:58:04;18.20;;;2.80;;
2023;SDS011;1016;48.770;9.154;2022-09-12T18:00:31;18.90;;;2.93;;